sensor_id;sensor_type;location;lat;lon;timestamp;temperature;humidity
31729;DHT22;18309;43.658;1.312;2022-08-20T00:00:58;22.10;95.90
31729;DHT22;18309;43.658;1.312;2022-08-20T00:03:32;22.10;96.00
31729;DHT22;18309;43.658;1.312;2022-08-20T00:06:02;22.00;96.40
31729;DHT22;18309;43.658;1.312;2022-08-20T00:08:28;22.00;96.20
31729;DHT22;18309;43.658;1.312;2022-08-20T00:10:55;22.00;96.20
31729;DHT22;18309;43.658;1.312;2022-08-20T00:13:24;22.00;96.20
31729;DHT22;18309;43.658;1.312;2022-08-20T00:15:51;22.00;96.40
31729;DHT22;18309;43.658;1.312;2022-08-20T00:18:17;21.90;96.70
31729;DHT22;18309;43.658;1.312;2022-08-20T00:20:46;21.90;96.70
31729;DHT22;18309;43.658;1.312;2022-08-20T00:23:12;21.90;96.50
31729;DHT22;18309;43.658;1.312;2022-08-20T00:25:40;21.80;96.20
31729;DHT22;18309;43.658;1.312;2022-08-20T00:28:05;21.90;96.10
31729;DHT22;18309;43.658;1.312;2022-08-20T00:30:33;21.90;96.10
31729;DHT22;18309;43.658;1.312;2022-08-20T00:33:06;21.90;96.10
31729;DHT22;18309;43.658;1.312;2022-08-20T00:35:35;21.90;96.10
31729;DHT22;18309;43.658;1.312;2022-08-20T00:38:01;21.80;96.20
31729;DHT22;18309;43.658;1.312;2022-08-20T00:40:32;21.80;96.40
31729;DHT22;18309;43.658;1.312;2022-08-20T00:43:00;21.80;96.90
31729;DHT22;18309;43.658;1.312;2022-08-20T00:45:29;21.70;96.60
31729;DHT22;18309;43.658;1.312;2022-08-20T00:47:56;21.70;96.70
31729;DHT22;18309;43.658;1.312;2022-08-20T00:50:28;21.60;96.70
31729;DHT22;18309;43.658;1.312;2022-08-20T00:52:57;21.60;96.80
31729;DHT22;18309;43.658;1.312;2022-08-20T00:55:25;21.60;96.90
31729;DHT22;18309;43.658;1.312;2022-08-20T00:57:53;21.60;97.00
31729;DHT22;18309;43.658;1.312;2022-08-20T01:00:27;21.50;97.20
31729;DHT22;18309;43.658;1.312;2022-08-20T01:02:54;21.50;97.30
31729;DHT22;18309;43.658;1.312;2022-08-20T01:05:21;21.50;97.40
31729;DHT22;18309;43.658;1.312;2022-08-20T01:07:49;21.50;97.70
31729;DHT22;18309;43.658;1.312;2022-08-20T01:10:19;21.50;97.80
31729;DHT22;18309;43.658;1.312;2022-08-20T01:12:46;21.40;97.80
31729;DHT22;18309;43.658;1.312;2022-08-20T01:15:15;21.40;97.80
31729;DHT22;18309;43.658;1.312;2022-08-20T01:17:50;21.40;97.90
31729;DHT22;18309;43.658;1.312;2022-08-20T01:21:00;21.30;97.80
31729;DHT22;18309;43.658;1.312;2022-08-20T01:23:33;21.30;97.90
31729;DHT22;18309;43.658;1.312;2022-08-20T01:28:43;21.20;97.90
31729;DHT22;18309;43.658;1.312;2022-08-20T01:31:12;21.20;98.00
31729;DHT22;18309;43.658;1.312;2022-08-20T01:33:39;21.10;98.00
31729;DHT22;18309;43.658;1.312;2022-08-20T01:36:06;21.10;98.20
31729;DHT22;18309;43.658;1.312;2022-08-20T01:38:33;21.10;98.20
31729;DHT22;18309;43.658;1.312;2022-08-20T01:43:56;21.10;98.40
31729;DHT22;18309;43.658;1.312;2022-08-20T01:46:28;21.10;98.40
31729;DHT22;18309;43.658;1.312;2022-08-20T01:48:56;21.10;98.90
31729;DHT22;18309;43.658;1.312;2022-08-20T01:51:28;21.00;98.60
31729;DHT22;18309;43.658;1.312;2022-08-20T01:53:56;20.90;98.70
31729;DHT22;18309;43.658;1.312;2022-08-20T01:56:26;21.00;98.80
31729;DHT22;18309;43.658;1.312;2022-08-20T01:58:55;20.90;98.80
31729;DHT22;18309;43.658;1.312;2022-08-20T02:01:34;20.90;99.00
31729;DHT22;18309;43.658;1.312;2022-08-20T02:04:01;20.90;99.20
31729;DHT22;18309;43.658;1.312;2022-08-20T02:06:29;20.90;99.20
31729;DHT22;18309;43.658;1.312;2022-08-20T02:08:57;20.90;99.20
31729;DHT22;18309;43.658;1.312;2022-08-20T02:11:25;20.80;99.30
31729;DHT22;18309;43.658;1.312;2022-08-20T02:13:52;20.80;99.50
31729;DHT22;18309;43.658;1.312;2022-08-20T02:16:22;20.80;99.50
31729;DHT22;18309;43.658;1.312;2022-08-20T02:18:51;20.80;99.50
31729;DHT22;18309;43.658;1.312;2022-08-20T02:21:19;20.70;99.70
31729;DHT22;18309;43.658;1.312;2022-08-20T02:23:45;20.70;99.70
31729;DHT22;18309;43.658;1.312;2022-08-20T02:26:11;20.70;99.80
31729;DHT22;18309;43.658;1.312;2022-08-20T02:28:37;20.70;99.90
31729;DHT22;18309;43.658;1.312;2022-08-20T02:31:03;20.70;99.90
31729;DHT22;18309;43.658;1.312;2022-08-20T02:33:33;20.60;99.90
31729;DHT22;18309;43.658;1.312;2022-08-20T02:35:59;20.60;99.90
31729;DHT22;18309;43.658;1.312;2022-08-20T02:38:24;20.60;99.90
31729;DHT22;18309;43.658;1.312;2022-08-20T02:40:50;20.60;99.90
31729;DHT22;18309;43.658;1.312;2022-08-20T02:43:16;20.50;99.90
31729;DHT22;18309;43.658;1.312;2022-08-20T02:45:43;20.50;99.90
31729;DHT22;18309;43.658;1.312;2022-08-20T02:48:15;20.50;99.90
31729;DHT22;18309;43.658;1.312;2022-08-20T02:50:49;20.50;99.90
31729;DHT22;18309;43.658;1.312;2022-08-20T02:53:16;20.50;99.90
31729;DHT22;18309;43.658;1.312;2022-08-20T02:55:42;20.40;99.90
31729;DHT22;18309;43.658;1.312;2022-08-20T02:58:07;20.40;99.90
31729;DHT22;18309;43.658;1.312;2022-08-20T03:00:33;20.40;99.90
31729;DHT22;18309;43.658;1.312;2022-08-20T03:02:59;20.30;99.90
31729;DHT22;18309;43.658;1.312;2022-08-20T03:05:25;20.30;99.90
31729;DHT22;18309;43.658;1.312;2022-08-20T03:07:52;20.20;99.90
31729;DHT22;18309;43.658;1.312;2022-08-20T03:10:23;20.20;99.90
31729;DHT22;18309;43.658;1.312;2022-08-20T03:12:49;20.20;99.90
31729;DHT22;18309;43.658;1.312;2022-08-20T03:15:15;20.20;99.90
31729;DHT22;18309;43.658;1.312;2022-08-20T03:17:40;20.10;99.90
31729;DHT22;18309;43.658;1.312;2022-08-20T03:20:07;20.10;99.90
31729;DHT22;18309;43.658;1.312;2022-08-20T03:22:33;20.10;99.90
31729;DHT22;18309;43.658;1.312;2022-08-20T03:24:59;20.10;99.90
31729;DHT22;18309;43.658;1.312;2022-08-20T03:27:25;20.00;99.90
31729;DHT22;18309;43.658;1.312;2022-08-20T03:29:51;20.00;99.90
31729;DHT22;18309;43.658;1.312;2022-08-20T03:32:16;20.00;99.90
31729;DHT22;18309;43.658;1.312;2022-08-20T03:34:42;19.90;99.90
31729;DHT22;18309;43.658;1.312;2022-08-20T03:37:08;19.90;99.90
31729;DHT22;18309;43.658;1.312;2022-08-20T03:39:36;19.80;99.90
31729;DHT22;18309;43.658;1.312;2022-08-20T03:42:03;19.90;99.90
31729;DHT22;18309;43.658;1.312;2022-08-20T03:44:29;19.80;99.90
31729;DHT22;18309;43.658;1.312;2022-08-20T03:46:54;19.80;99.90
31729;DHT22;18309;43.658;1.312;2022-08-20T03:49:20;19.90;99.90
31729;DHT22;18309;43.658;1.312;2022-08-20T03:51:49;19.80;99.90
31729;DHT22;18309;43.658;1.312;2022-08-20T03:54:15;19.80;99.90
31729;DHT22;18309;43.658;1.312;2022-08-20T03:56:41;19.70;99.90
31729;DHT22;18309;43.658;1.312;2022-08-20T03:59:06;19.80;99.90
31729;DHT22;18309;43.658;1.312;2022-08-20T04:01:32;19.70;99.90
31729;DHT22;18309;43.658;1.312;2022-08-20T04:03:59;19.70;99.90
31729;DHT22;18309;43.658;1.312;2022-08-20T04:06:25;19.70;99.90
31729;DHT22;18309;43.658;1.312;2022-08-20T04:08:54;19.60;99.90
31729;DHT22;18309;43.658;1.312;2022-08-20T04:11:19;19.60;99.90
31729;DHT22;18309;43.658;1.312;2022-08-20T04:13:45;19.60;99.90
31729;DHT22;18309;43.658;1.312;2022-08-20T04:16:11;19.60;99.90
31729;DHT22;18309;43.658;1.312;2022-08-20T04:18:36;19.50;99.90
31729;DHT22;18309;43.658;1.312;2022-08-20T04:21:03;19.50;99.90
31729;DHT22;18309;43.658;1.312;2022-08-20T04:23:30;19.50;99.90
31729;DHT22;18309;43.658;1.312;2022-08-20T04:25:56;19.50;99.90
31729;DHT22;18309;43.658;1.312;2022-08-20T04:28:23;19.50;99.90
31729;DHT22;18309;43.658;1.312;2022-08-20T04:30:52;19.50;99.90
31729;DHT22;18309;43.658;1.312;2022-08-20T04:33:19;19.40;99.90
31729;DHT22;18309;43.658;1.312;2022-08-20T04:35:45;19.40;99.90
31729;DHT22;18309;43.658;1.312;2022-08-20T04:38:14;19.40;99.90
31729;DHT22;18309;43.658;1.312;2022-08-20T04:40:40;19.40;99.90
31729;DHT22;18309;43.658;1.312;2022-08-20T04:43:19;19.40;99.90
31729;DHT22;18309;43.658;1.312;2022-08-20T04:45:47;19.30;99.90
31729;DHT22;18309;43.658;1.312;2022-08-20T04:48:13;19.30;99.90
31729;DHT22;18309;43.658;1.312;2022-08-20T04:50:42;19.30;99.90
31729;DHT22;18309;43.658;1.312;2022-08-20T04:53:09;19.30;99.90
31729;DHT22;18309;43.658;1.312;2022-08-20T04:55:38;19.30;99.90
31729;DHT22;18309;43.658;1.312;2022-08-20T04:58:10;19.30;99.90
31729;DHT22;18309;43.658;1.312;2022-08-20T05:00:36;19.20;99.90
31729;DHT22;18309;43.658;1.312;2022-08-20T05:03:03;19.20;99.90
31729;DHT22;18309;43.658;1.312;2022-08-20T05:05:32;19.20;99.90
31729;DHT22;18309;43.658;1.312;2022-08-20T05:07:59;19.20;99.90
31729;DHT22;18309;43.658;1.312;2022-08-20T05:10:27;19.20;99.90
31729;DHT22;18309;43.658;1.312;2022-08-20T05:12:53;19.20;99.90
31729;DHT22;18309;43.658;1.312;2022-08-20T05:15:19;19.10;99.90
31729;DHT22;18309;43.658;1.312;2022-08-20T05:17:44;19.10;99.90
31729;DHT22;18309;43.658;1.312;2022-08-20T05:20:14;19.10;99.90
31729;DHT22;18309;43.658;1.312;2022-08-20T05:22:41;19.10;99.90
31729;DHT22;18309;43.658;1.312;2022-08-20T05:25:07;19.10;99.90
31729;DHT22;18309;43.658;1.312;2022-08-20T05:27:34;19.10;99.90
31729;DHT22;18309;43.658;1.312;2022-08-20T05:30:02;19.10;99.90
31729;DHT22;18309;43.658;1.312;2022-08-20T05:32:31;19.10;99.90
31729;DHT22;18309;43.658;1.312;2022-08-20T05:34:58;19.10;99.90
31729;DHT22;18309;43.658;1.312;2022-08-20T05:37:25;19.00;99.90
31729;DHT22;18309;43.658;1.312;2022-08-20T05:39:50;19.10;99.90
31729;DHT22;18309;43.658;1.312;2022-08-20T05:42:16;19.10;99.90
31729;DHT22;18309;43.658;1.312;2022-08-20T05:44:42;19.10;99.90
31729;DHT22;18309;43.658;1.312;2022-08-20T05:47:12;19.10;99.90
31729;DHT22;18309;43.658;1.312;2022-08-20T05:49:38;19.10;99.90
31729;DHT22;18309;43.658;1.312;2022-08-20T05:52:04;19.10;99.90
31729;DHT22;18309;43.658;1.312;2022-08-20T05:54:31;19.10;99.90
31729;DHT22;18309;43.658;1.312;2022-08-20T05:56:57;19.10;99.90
31729;DHT22;18309;43.658;1.312;2022-08-20T05:59:23;19.10;99.90
31729;DHT22;18309;43.658;1.312;2022-08-20T06:01:50;19.10;99.90
31729;DHT22;18309;43.658;1.312;2022-08-20T06:04:16;19.20;99.90
31729;DHT22;18309;43.658;1.312;2022-08-20T06:07:06;19.20;99.90
31729;DHT22;18309;43.658;1.312;2022-08-20T06:09:32;19.20;99.90
31729;DHT22;18309;43.658;1.312;2022-08-20T06:12:02;19.20;99.90
31729;DHT22;18309;43.658;1.312;2022-08-20T06:14:28;19.30;99.90
31729;DHT22;18309;43.658;1.312;2022-08-20T06:16:53;19.30;99.90
31729;DHT22;18309;43.658;1.312;2022-08-20T06:19:19;19.30;99.90
31729;DHT22;18309;43.658;1.312;2022-08-20T06:21:45;19.30;99.90
31729;DHT22;18309;43.658;1.312;2022-08-20T06:24:10;19.40;99.90
31729;DHT22;18309;43.658;1.312;2022-08-20T06:26:36;19.40;99.90
31729;DHT22;18309;43.658;1.312;2022-08-20T06:29:04;19.40;99.90
31729;DHT22;18309;43.658;1.312;2022-08-20T06:31:31;19.40;99.90
31729;DHT22;18309;43.658;1.312;2022-08-20T06:33:57;19.50;99.90
31729;DHT22;18309;43.658;1.312;2022-08-20T06:36:22;19.50;99.90
31729;DHT22;18309;43.658;1.312;2022-08-20T06:38:49;19.50;99.90
31729;DHT22;18309;43.658;1.312;2022-08-20T06:41:15;19.60;99.90
31729;DHT22;18309;43.658;1.312;2022-08-20T06:43:41;19.60;99.90
31729;DHT22;18309;43.658;1.312;2022-08-20T06:46:07;19.70;99.90
31729;DHT22;18309;43.658;1.312;2022-08-20T06:48:33;19.70;99.90
31729;DHT22;18309;43.658;1.312;2022-08-20T06:50:59;19.70;99.90
31729;DHT22;18309;43.658;1.312;2022-08-20T06:53:24;19.80;99.90
31729;DHT22;18309;43.658;1.312;2022-08-20T06:55:52;19.80;99.90
31729;DHT22;18309;43.658;1.312;2022-08-20T06:58:18;19.90;99.90
31729;DHT22;18309;43.658;1.312;2022-08-20T07:00:46;19.90;99.90
31729;DHT22;18309;43.658;1.312;2022-08-20T07:03:13;20.00;99.90
31729;DHT22;18309;43.658;1.312;2022-08-20T07:05:41;20.00;99.90
31729;DHT22;18309;43.658;1.312;2022-08-20T07:08:13;20.10;99.90
31729;DHT22;18309;43.658;1.312;2022-08-20T07:10:40;20.10;99.90
31729;DHT22;18309;43.658;1.312;2022-08-20T07:13:08;20.10;99.90
31729;DHT22;18309;43.658;1.312;2022-08-20T07:15:34;20.20;99.90
31729;DHT22;18309;43.658;1.312;2022-08-20T07:18:03;20.20;99.90
31729;DHT22;18309;43.658;1.312;2022-08-20T07:20:30;20.30;99.90
31729;DHT22;18309;43.658;1.312;2022-08-20T07:22:56;20.30;99.90
31729;DHT22;18309;43.658;1.312;2022-08-20T07:25:23;20.30;99.90
31729;DHT22;18309;43.658;1.312;2022-08-20T07:27:49;20.40;99.90
31729;DHT22;18309;43.658;1.312;2022-08-20T07:30:21;20.40;99.90
31729;DHT22;18309;43.658;1.312;2022-08-20T07:33:06;20.50;99.90
31729;DHT22;18309;43.658;1.312;2022-08-20T07:35:32;20.50;99.90
31729;DHT22;18309;43.658;1.312;2022-08-20T07:37:57;20.50;99.90
31729;DHT22;18309;43.658;1.312;2022-08-20T07:40:26;20.60;99.90
31729;DHT22;18309;43.658;1.312;2022-08-20T07:42:53;20.60;99.90
31729;DHT22;18309;43.658;1.312;2022-08-20T07:45:20;20.60;99.90
31729;DHT22;18309;43.658;1.312;2022-08-20T07:47:46;20.70;99.90
31729;DHT22;18309;43.658;1.312;2022-08-20T07:50:16;20.70;99.90
31729;DHT22;18309;43.658;1.312;2022-08-20T07:52:43;20.70;99.90
31729;DHT22;18309;43.658;1.312;2022-08-20T07:55:13;20.80;99.90
31729;DHT22;18309;43.658;1.312;2022-08-20T07:57:40;20.80;99.90
31729;DHT22;18309;43.658;1.312;2022-08-20T08:00:08;20.90;99.90
31729;DHT22;18309;43.658;1.312;2022-08-20T08:02:35;20.90;99.90
31729;DHT22;18309;43.658;1.312;2022-08-20T08:05:01;20.90;99.90
31729;DHT22;18309;43.658;1.312;2022-08-20T08:07:27;21.00;99.90
31729;DHT22;18309;43.658;1.312;2022-08-20T08:09:54;21.00;99.90
31729;DHT22;18309;43.658;1.312;2022-08-20T08:12:21;21.00;99.90
31729;DHT22;18309;43.658;1.312;2022-08-20T08:14:49;21.10;99.90
31729;DHT22;18309;43.658;1.312;2022-08-20T08:17:15;21.10;99.90
31729;DHT22;18309;43.658;1.312;2022-08-20T08:19:46;21.10;99.90
31729;DHT22;18309;43.658;1.312;2022-08-20T08:22:15;21.20;99.90
31729;DHT22;18309;43.658;1.312;2022-08-20T08:24:42;21.20;99.90
31729;DHT22;18309;43.658;1.312;2022-08-20T08:27:09;21.30;99.90
31729;DHT22;18309;43.658;1.312;2022-08-20T08:29:35;21.30;99.90
31729;DHT22;18309;43.658;1.312;2022-08-20T08:32:05;21.30;99.90
31729;DHT22;18309;43.658;1.312;2022-08-20T08:34:33;21.40;99.90
31729;DHT22;18309;43.658;1.312;2022-08-20T08:36:59;21.40;99.90
31729;DHT22;18309;43.658;1.312;2022-08-20T08:39:30;21.50;99.90
31729;DHT22;18309;43.658;1.312;2022-08-20T08:41:58;21.50;99.90
31729;DHT22;18309;43.658;1.312;2022-08-20T08:44:36;21.50;99.90
31729;DHT22;18309;43.658;1.312;2022-08-20T08:47:10;21.60;99.90
31729;DHT22;18309;43.658;1.312;2022-08-20T08:49:43;21.60;99.90
31729;DHT22;18309;43.658;1.312;2022-08-20T08:52:16;21.60;99.90
31729;DHT22;18309;43.658;1.312;2022-08-20T08:54:51;21.60;99.90
31729;DHT22;18309;43.658;1.312;2022-08-20T08:57:17;21.70;99.90
31729;DHT22;18309;43.658;1.312;2022-08-20T09:00:06;21.80;99.90
31729;DHT22;18309;43.658;1.312;2022-08-20T09:02:35;21.80;99.90
31729;DHT22;18309;43.658;1.312;2022-08-20T09:05:16;21.80;99.90
31729;DHT22;18309;43.658;1.312;2022-08-20T09:07:48;21.90;99.90
31729;DHT22;18309;43.658;1.312;2022-08-20T09:10:15;21.90;99.90
31729;DHT22;18309;43.658;1.312;2022-08-20T09:12:42;21.90;99.90
31729;DHT22;18309;43.658;1.312;2022-08-20T09:15:09;21.90;99.90
31729;DHT22;18309;43.658;1.312;2022-08-20T09:17:35;22.00;99.90
31729;DHT22;18309;43.658;1.312;2022-08-20T09:20:01;22.10;99.90
31729;DHT22;18309;43.658;1.312;2022-08-20T09:22:27;22.10;99.90
31729;DHT22;18309;43.658;1.312;2022-08-20T09:24:53;22.10;99.90
31729;DHT22;18309;43.658;1.312;2022-08-20T09:27:19;22.20;99.90
31729;DHT22;18309;43.658;1.312;2022-08-20T09:29:44;22.20;99.90
31729;DHT22;18309;43.658;1.312;2022-08-20T09:32:15;22.30;99.90
31729;DHT22;18309;43.658;1.312;2022-08-20T09:34:44;22.30;99.90
31729;DHT22;18309;43.658;1.312;2022-08-20T09:37:12;22.40;99.90
31729;DHT22;18309;43.658;1.312;2022-08-20T09:39:38;22.40;99.90
31729;DHT22;18309;43.658;1.312;2022-08-20T09:44:37;22.50;99.90
31729;DHT22;18309;43.658;1.312;2022-08-20T09:47:03;22.50;99.90
31729;DHT22;18309;43.658;1.312;2022-08-20T09:49:29;22.60;99.90
31729;DHT22;18309;43.658;1.312;2022-08-20T09:51:55;22.60;99.90
31729;DHT22;18309;43.658;1.312;2022-08-20T09:54:21;22.60;99.90
31729;DHT22;18309;43.658;1.312;2022-08-20T09:56:47;22.70;99.90
31729;DHT22;18309;43.658;1.312;2022-08-20T09:59:14;22.70;99.90
31729;DHT22;18309;43.658;1.312;2022-08-20T10:01:40;22.80;99.90
31729;DHT22;18309;43.658;1.312;2022-08-20T10:04:06;22.80;99.90
31729;DHT22;18309;43.658;1.312;2022-08-20T10:06:38;22.90;99.90
31729;DHT22;18309;43.658;1.312;2022-08-20T10:09:04;22.90;99.90
31729;DHT22;18309;43.658;1.312;2022-08-20T10:11:30;23.00;99.90
31729;DHT22;18309;43.658;1.312;2022-08-20T10:13:56;23.00;99.90
31729;DHT22;18309;43.658;1.312;2022-08-20T10:16:28;23.10;99.90
31729;DHT22;18309;43.658;1.312;2022-08-20T10:18:54;23.20;99.90
31729;DHT22;18309;43.658;1.312;2022-08-20T10:21:20;23.20;99.90
31729;DHT22;18309;43.658;1.312;2022-08-20T10:23:46;23.20;99.90
31729;DHT22;18309;43.658;1.312;2022-08-20T10:26:12;23.30;99.90
31729;DHT22;18309;43.658;1.312;2022-08-20T10:28:39;23.30;99.90
31729;DHT22;18309;43.658;1.312;2022-08-20T10:31:09;23.30;99.90
31729;DHT22;18309;43.658;1.312;2022-08-20T10:33:35;23.40;99.90
31729;DHT22;18309;43.658;1.312;2022-08-20T10:36:15;23.40;99.90
31729;DHT22;18309;43.658;1.312;2022-08-20T10:38:42;23.50;99.90
31729;DHT22;18309;43.658;1.312;2022-08-20T10:41:08;23.60;99.90
31729;DHT22;18309;43.658;1.312;2022-08-20T10:43:34;23.60;99.90
31729;DHT22;18309;43.658;1.312;2022-08-20T10:46:00;23.60;99.90
31729;DHT22;18309;43.658;1.312;2022-08-20T10:48:26;23.70;99.90
31729;DHT22;18309;43.658;1.312;2022-08-20T10:50:52;23.70;99.90
31729;DHT22;18309;43.658;1.312;2022-08-20T10:53:19;23.70;99.90
31729;DHT22;18309;43.658;1.312;2022-08-20T10:55:45;23.70;99.90
31729;DHT22;18309;43.658;1.312;2022-08-20T10:58:10;23.70;99.90
31729;DHT22;18309;43.658;1.312;2022-08-20T11:00:38;23.80;99.90
31729;DHT22;18309;43.658;1.312;2022-08-20T11:03:04;23.80;99.90
31729;DHT22;18309;43.658;1.312;2022-08-20T11:05:30;23.90;99.90
31729;DHT22;18309;43.658;1.312;2022-08-20T11:07:55;23.90;99.90
31729;DHT22;18309;43.658;1.312;2022-08-20T11:10:24;23.90;99.90
31729;DHT22;18309;43.658;1.312;2022-08-20T11:12:49;24.00;99.90
31729;DHT22;18309;43.658;1.312;2022-08-20T11:15:15;24.00;99.90
31729;DHT22;18309;43.658;1.312;2022-08-20T11:17:42;24.10;99.90
31729;DHT22;18309;43.658;1.312;2022-08-20T11:20:10;24.20;99.90
31729;DHT22;18309;43.658;1.312;2022-08-20T11:22:36;24.30;99.70
31729;DHT22;18309;43.658;1.312;2022-08-20T11:25:03;24.30;99.20
31729;DHT22;18309;43.658;1.312;2022-08-20T11:27:35;24.30;99.50
31729;DHT22;18309;43.658;1.312;2022-08-20T11:30:01;24.30;99.50
31729;DHT22;18309;43.658;1.312;2022-08-20T11:32:27;24.40;99.30
31729;DHT22;18309;43.658;1.312;2022-08-20T11:34:52;24.40;98.90
31729;DHT22;18309;43.658;1.312;2022-08-20T11:37:20;24.40;99.10
31729;DHT22;18309;43.658;1.312;2022-08-20T11:39:46;24.50;99.50
31729;DHT22;18309;43.658;1.312;2022-08-20T11:42:12;24.50;99.50
31729;DHT22;18309;43.658;1.312;2022-08-20T11:44:38;24.60;99.20
31729;DHT22;18309;43.658;1.312;2022-08-20T11:47:06;24.70;98.40
31729;DHT22;18309;43.658;1.312;2022-08-20T11:49:33;24.70;98.10
31729;DHT22;18309;43.658;1.312;2022-08-20T11:51:59;24.70;98.10
31729;DHT22;18309;43.658;1.312;2022-08-20T11:54:25;24.70;97.70
31729;DHT22;18309;43.658;1.312;2022-08-20T11:56:54;24.80;97.70
31729;DHT22;18309;43.658;1.312;2022-08-20T11:59:22;24.80;98.00
31729;DHT22;18309;43.658;1.312;2022-08-20T12:01:48;24.80;98.20
31729;DHT22;18309;43.658;1.312;2022-08-20T12:04:14;24.90;98.30
31729;DHT22;18309;43.658;1.312;2022-08-20T12:06:40;24.80;98.20
31729;DHT22;18309;43.658;1.312;2022-08-20T12:09:05;24.90;98.00
31729;DHT22;18309;43.658;1.312;2022-08-20T12:11:31;25.00;98.00
31729;DHT22;18309;43.658;1.312;2022-08-20T12:13:57;25.00;98.00
31729;DHT22;18309;43.658;1.312;2022-08-20T12:16:22;25.10;97.50
31729;DHT22;18309;43.658;1.312;2022-08-20T12:18:48;25.10;96.90
31729;DHT22;18309;43.658;1.312;2022-08-20T12:21:14;25.20;96.80
31729;DHT22;18309;43.658;1.312;2022-08-20T12:23:40;25.20;96.50
31729;DHT22;18309;43.658;1.312;2022-08-20T12:26:05;25.20;96.30
31729;DHT22;18309;43.658;1.312;2022-08-20T12:28:31;25.30;96.30
31729;DHT22;18309;43.658;1.312;2022-08-20T12:30:57;25.30;96.70
31729;DHT22;18309;43.658;1.312;2022-08-20T12:33:24;25.30;96.80
31729;DHT22;18309;43.658;1.312;2022-08-20T12:35:50;25.40;96.40
31729;DHT22;18309;43.658;1.312;2022-08-20T12:38:16;25.40;96.40
31729;DHT22;18309;43.658;1.312;2022-08-20T12:40:41;25.40;96.50
31729;DHT22;18309;43.658;1.312;2022-08-20T12:43:07;25.40;96.60
31729;DHT22;18309;43.658;1.312;2022-08-20T12:45:34;25.40;96.50
31729;DHT22;18309;43.658;1.312;2022-08-20T12:48:03;25.50;96.30
31729;DHT22;18309;43.658;1.312;2022-08-20T12:50:30;25.50;96.30
31729;DHT22;18309;43.658;1.312;2022-08-20T12:52:56;25.60;96.20
31729;DHT22;18309;43.658;1.312;2022-08-20T12:55:22;25.70;95.90
31729;DHT22;18309;43.658;1.312;2022-08-20T12:57:51;25.80;95.70
31729;DHT22;18309;43.658;1.312;2022-08-20T13:00:21;25.90;95.60
31729;DHT22;18309;43.658;1.312;2022-08-20T13:02:48;26.00;95.50
31729;DHT22;18309;43.658;1.312;2022-08-20T13:05:15;26.10;95.50
31729;DHT22;18309;43.658;1.312;2022-08-20T13:07:43;26.20;95.50
31729;DHT22;18309;43.658;1.312;2022-08-20T13:10:12;26.20;95.60
31729;DHT22;18309;43.658;1.312;2022-08-20T13:12:38;26.30;95.30
31729;DHT22;18309;43.658;1.312;2022-08-20T13:15:05;26.40;94.60
31729;DHT22;18309;43.658;1.312;2022-08-20T13:17:31;26.60;93.70
31729;DHT22;18309;43.658;1.312;2022-08-20T13:19:56;26.70;93.20
31729;DHT22;18309;43.658;1.312;2022-08-20T13:22:22;26.80;92.00
31729;DHT22;18309;43.658;1.312;2022-08-20T13:24:48;26.90;92.00
31729;DHT22;18309;43.658;1.312;2022-08-20T13:27:16;27.00;92.20
31729;DHT22;18309;43.658;1.312;2022-08-20T13:29:51;27.10;92.60
31729;DHT22;18309;43.658;1.312;2022-08-20T13:32:18;27.20;92.30
31729;DHT22;18309;43.658;1.312;2022-08-20T13:34:44;27.30;92.20
31729;DHT22;18309;43.658;1.312;2022-08-20T13:37:16;27.50;92.10
31729;DHT22;18309;43.658;1.312;2022-08-20T13:39:42;27.60;92.10
31729;DHT22;18309;43.658;1.312;2022-08-20T13:42:09;27.80;91.40
31729;DHT22;18309;43.658;1.312;2022-08-20T13:44:36;27.90;91.00
31729;DHT22;18309;43.658;1.312;2022-08-20T13:49:42;28.20;90.60
31729;DHT22;18309;43.658;1.312;2022-08-20T13:52:08;28.40;90.90
31729;DHT22;18309;43.658;1.312;2022-08-20T13:54:34;28.50;91.00
31729;DHT22;18309;43.658;1.312;2022-08-20T13:57:26;28.70;90.30
31729;DHT22;18309;43.658;1.312;2022-08-20T13:59:55;28.80;90.10
31729;DHT22;18309;43.658;1.312;2022-08-20T14:02:21;29.00;89.50
31729;DHT22;18309;43.658;1.312;2022-08-20T14:04:48;29.10;89.60
31729;DHT22;18309;43.658;1.312;2022-08-20T14:07:22;29.30;88.60
31729;DHT22;18309;43.658;1.312;2022-08-20T14:09:55;29.40;87.40
31729;DHT22;18309;43.658;1.312;2022-08-20T14:12:22;29.50;87.90
31729;DHT22;18309;43.658;1.312;2022-08-20T14:14:49;29.80;88.40
31729;DHT22;18309;43.658;1.312;2022-08-20T14:17:21;30.00;88.10
31729;DHT22;18309;43.658;1.312;2022-08-20T14:19:50;30.20;86.90
31729;DHT22;18309;43.658;1.312;2022-08-20T14:22:16;30.30;84.50
31729;DHT22;18309;43.658;1.312;2022-08-20T14:24:46;30.40;84.10
31729;DHT22;18309;43.658;1.312;2022-08-20T14:27:13;30.70;83.00
31729;DHT22;18309;43.658;1.312;2022-08-20T14:29:42;30.90;82.40
31729;DHT22;18309;43.658;1.312;2022-08-20T14:32:08;31.00;81.80
31729;DHT22;18309;43.658;1.312;2022-08-20T14:34:35;31.20;80.60
31729;DHT22;18309;43.658;1.312;2022-08-20T14:37:17;31.40;81.10
31729;DHT22;18309;43.658;1.312;2022-08-20T14:39:45;31.50;79.80
31729;DHT22;18309;43.658;1.312;2022-08-20T14:42:11;31.60;79.20
31729;DHT22;18309;43.658;1.312;2022-08-20T14:44:37;31.80;76.20
31729;DHT22;18309;43.658;1.312;2022-08-20T14:49:50;32.20;76.10
31729;DHT22;18309;43.658;1.312;2022-08-20T14:52:17;32.20;76.50
31729;DHT22;18309;43.658;1.312;2022-08-20T14:54:44;32.50;77.30
31729;DHT22;18309;43.658;1.312;2022-08-20T14:57:11;32.50;76.40
31729;DHT22;18309;43.658;1.312;2022-08-20T14:59:36;32.70;76.00
31729;DHT22;18309;43.658;1.312;2022-08-20T15:02:07;32.80;75.20
31729;DHT22;18309;43.658;1.312;2022-08-20T15:04:33;33.00;75.30
31729;DHT22;18309;43.658;1.312;2022-08-20T15:07:00;33.20;75.10
31729;DHT22;18309;43.658;1.312;2022-08-20T15:09:29;33.30;73.80
31729;DHT22;18309;43.658;1.312;2022-08-20T15:11:56;33.40;73.20
31729;DHT22;18309;43.658;1.312;2022-08-20T15:14:21;33.40;72.20
31729;DHT22;18309;43.658;1.312;2022-08-20T15:16:47;33.60;72.20
31729;DHT22;18309;43.658;1.312;2022-08-20T15:19:13;33.80;70.90
31729;DHT22;18309;43.658;1.312;2022-08-20T15:21:39;33.90;70.20
31729;DHT22;18309;43.658;1.312;2022-08-20T15:24:05;34.00;70.00
31729;DHT22;18309;43.658;1.312;2022-08-20T15:26:32;34.10;69.80
31729;DHT22;18309;43.658;1.312;2022-08-20T15:28:57;34.20;69.30
31729;DHT22;18309;43.658;1.312;2022-08-20T15:31:23;34.30;69.10
31729;DHT22;18309;43.658;1.312;2022-08-20T15:33:49;34.40;68.80
31729;DHT22;18309;43.658;1.312;2022-08-20T15:36:15;34.50;68.70
31729;DHT22;18309;43.658;1.312;2022-08-20T15:38:40;34.60;69.00
31729;DHT22;18309;43.658;1.312;2022-08-20T15:41:06;34.70;67.80
31729;DHT22;18309;43.658;1.312;2022-08-20T15:43:32;34.80;66.60
31729;DHT22;18309;43.658;1.312;2022-08-20T15:45:58;34.90;66.30